Time;durP1;ratioP1;P1;durP2;ratioP2;P2;SDS_P1;SDS_P2;PMS_P1;PMS_P2;Temp;Humidity;BMP_temperature;BMP_pressure;BME280_temperature;BME280_humidity;BME280_pressure;Samples;Min_cycle;Max_cycle;Signal;HPM_P1;HPM_P2
2023/09/17 00:00:30;;;;;;;19.73;17.63;;;;;;;16.59;100.00;100920.53;5013771;28;20451;-82
2023/09/17 00:02:59;;;;;;;19.40;17.60;;;;;;;16.68;100.00;100913.63;5003410;28;20484;-80
2023/09/17 00:05:29;;;;;;;21.83;19.83;;;;;;;16.56;100.00;100907.31;5022544;28;20443;-81
2023/09/17 00:07:58;;;;;;;19.30;17.60;;;;;;;16.54;100.00;100923.13;5002942;28;20459;-81
2023/09/17 00:10:29;;;;;;;21.03;19.03;;;;;;;16.43;100.00;100915.78;5000028;28;20424;-80
2023/09/17 00:12:58;;;;;;;21.63;19.57;;;;;;;16.35;100.00;100916.16;4996323;28;20436;-84
2023/09/17 00:15:28;;;;;;;21.27;19.37;;;;;;;16.24;100.00;100908.81;5000385;28;20472;-82
2023/09/17 00:17:57;;;;;;;19.87;17.97;;;;;;;16.15;100.00;100907.50;4998177;28;20440;-81
2023/09/17 00:20:27;;;;;;;21.23;19.13;;;;;;;16.44;100.00;100912.00;5004280;28;20442;-82
2023/09/17 00:22:56;;;;;;;21.00;19.10;;;;;;;16.36;100.00;100910.44;5003482;28;21055;-82
2023/09/17 00:25:26;;;;;;;21.40;19.17;;;;;;;16.13;100.00;100918.66;5003811;28;20441;-85
2023/09/17 00:27:58;;;;;;;19.83;18.03;;;;;;;16.21;100.00;100915.59;5005688;28;20467;-82
2023/09/17 00:30:28;;;;;;;21.43;19.37;;;;;;;16.19;100.00;100916.88;5002359;28;20430;-83
2023/09/17 00:32:57;;;;;;;23.40;18.57;;;;;;;16.30;100.00;100919.63;4997794;28;20426;-82
2023/09/17 00:35:27;;;;;;;21.97;19.77;;;;;;;16.09;100.00;100918.31;4994156;28;20927;-82
2023/09/17 00:37:57;;;;;;;22.00;19.80;;;;;;;16.06;100.00;100910.63;4998667;28;20797;-82
2023/09/17 00:40:31;;;;;;;21.60;19.50;;;;;;;16.17;100.00;100906.19;4995495;28;20445;-83
2023/09/17 00:43:03;;;;;;;23.43;21.03;;;;;;;16.09;100.00;100915.59;5010827;28;20456;-81
2023/09/17 00:45:32;;;;;;;24.60;21.47;;;;;;;16.07;100.00;100917.72;5001150;28;20421;-80
2023/09/17 00:48:04;;;;;;;20.13;18.10;;;;;;;16.10;100.00;100913.69;5007663;28;20472;-82
2023/09/17 00:50:33;;;;;;;22.90;20.80;;;;;;;15.95;100.00;100905.97;4995613;28;20421;-84
2023/09/17 00:53:04;;;;;;;23.23;21.07;;;;;;;16.06;100.00;100915.25;4989812;28;20440;-82
2023/09/17 00:55:33;;;;;;;22.90;20.77;;;;;;;16.15;100.00;100912.97;4993213;28;20441;-81
2023/09/17 00:58:07;;;;;;;23.10;20.80;;;;;;;16.13;100.00;100915.09;5000864;28;20465;-81
2023/09/17 01:00:38;;;;;;;23.57;21.37;;;;;;;16.09;100.00;100910.13;5012238;28;20417;-80
2023/09/17 01:03:09;;;;;;;26.60;23.90;;;;;;;16.11;100.00;100912.63;5006869;28;20388;-82
2023/09/17 01:05:43;;;;;;;25.03;22.70;;;;;;;16.08;100.00;100911.19;5009733;28;20420;-83
2023/09/17 01:08:13;;;;;;;23.50;21.40;;;;;;;16.21;100.00;100907.41;4998179;28;20436;-84
2023/09/17 01:10:43;;;;;;;22.97;20.70;;;;;;;16.21;100.00;100909.28;4992766;28;20799;-83
2023/09/17 01:13:15;;;;;;;24.73;22.33;;;;;;;16.25;100.00;100902.28;4999750;28;20441;-82
2023/09/17 01:15:45;;;;;;;24.07;21.50;;;;;;;16.21;100.00;100901.94;4997698;28;20855;-83
2023/09/17 01:18:15;;;;;;;22.77;20.47;;;;;;;16.14;100.00;100906.69;4993222;28;20533;-82
2023/09/17 01:20:54;;;;;;;24.03;21.93;;;;;;;16.14;100.00;100900.38;5007994;28;20424;-83
2023/09/17 01:23:30;;;;;;;25.07;22.37;;;;;;;16.07;100.00;100906.78;4994135;28;20412;-82
2023/09/17 01:26:08;;;;;;;23.53;21.33;;;;;;;16.03;100.00;100905.59;4982471;28;20407;-82
2023/09/17 01:28:40;;;;;;;24.23;22.13;;;;;;;15.93;100.00;100899.06;4994179;28;20473;-82
2023/09/17 01:31:10;;;;;;;26.37;23.90;;;;;;;15.92;100.00;100903.72;5000322;28;20454;-81
2023/09/17 01:33:39;;;;;;;24.67;22.17;;;;;;;15.87;100.00;100903.63;4997458;28;20621;-81
2023/09/17 01:53:36;;;;;;;27.30;24.47;;;;;;;15.68;100.00;100903.94;4992992;28;20972;-81
2023/09/17 01:56:06;;;;;;;27.40;24.63;;;;;;;15.50;100.00;100899.34;5006235;28;20431;-81
2023/09/17 01:58:36;;;;;;;31.27;27.97;;;;;;;15.47;100.00;100906.13;4982471;28;1290966;-81
2023/09/17 02:01:06;;;;;;;28.40;25.57;;;;;;;15.60;100.00;100905.09;5030917;28;20532;-80
2023/09/17 02:03:35;;;;;;;26.13;23.63;;;;;;;15.42;100.00;100914.19;5025579;28;20402;-80
2023/09/17 02:06:05;;;;;;;25.20;22.70;;;;;;;15.35;100.00;100904.41;5026700;28;20434;-80
2023/09/17 02:08:37;;;;;;;25.73;23.23;;;;;;;15.26;100.00;100911.28;5013888;28;20437;-80
2023/09/17 02:11:06;;;;;;;25.63;23.20;;;;;;;15.11;100.00;100909.81;5022298;28;20393;-80
2023/09/17 02:13:36;;;;;;;25.97;23.50;;;;;;;15.13;100.00;100915.88;5024342;28;20544;-80
2023/09/17 02:16:05;;;;;;;26.00;23.40;;;;;;;15.02;100.00;100913.91;5026349;28;20412;-81
2023/09/17 02:18:35;;;;;;;26.47;23.77;;;;;;;14.96;100.00;100920.28;5011060;28;20477;-80
2023/09/17 02:21:05;;;;;;;25.90;23.50;;;;;;;15.21;100.00;100915.53;5017798;28;20473;-80
2023/09/17 02:23:36;;;;;;;23.63;21.50;;;;;;;15.34;100.00;100913.69;5012268;28;20454;-79
2023/09/17 02:26:08;;;;;;;27.73;24.70;;;;;;;15.32;100.00;100918.53;5017853;28;20492;-79
2023/09/17 02:28:37;;;;;;;25.23;22.90;;;;;;;15.34;100.00;100913.69;5022285;28;20469;-80
2023/09/17 02:31:07;;;;;;;23.47;21.00;;;;;;;15.36;100.00;100914.25;5014122;28;20447;-79
2023/09/17 02:33:36;;;;;;;24.10;21.77;;;;;;;15.20;100.00;100913.88;5018852;28;20429;-82
2023/09/17 02:36:06;;;;;;;25.60;23.10;;;;;;;15.38;100.00;100904.81;4990428;28;20437;-82
2023/09/17 02:38:37;;;;;;;23.77;21.67;;;;;;;15.23;100.00;100910.69;5002514;28;20960;-83
2023/09/17 02:41:06;;;;;;;23.70;21.17;;;;;;;15.03;100.00;100910.13;5000494;28;20504;-82
2023/09/17 02:43:37;;;;;;;24.80;21.93;;;;;;;14.92;100.00;100915.53;5016969;28;20416;-80
2023/09/17 02:46:07;;;;;;;25.80;23.33;;;;;;;14.90;100.00;100915.78;5013041;28;20422;-79
2023/09/17 02:48:36;;;;;;;24.27;21.87;;;;;;;14.92;100.00;100910.91;5000174;28;20469;-80
2023/09/17 02:51:06;;;;;;;24.60;22.50;;;;;;;15.08;100.00;100914.91;5002481;28;20419;-80
2023/09/17 02:53:36;;;;;;;26.27;23.80;;;;;;;15.22;100.00;100919.94;5000270;28;20423;-82
2023/09/17 02:56:06;;;;;;;25.13;22.80;;;;;;;15.23;100.00;100916.16;4994041;28;20465;-82
2023/09/17 02:58:35;;;;;;;24.03;21.60;;;;;;;15.29;100.00;100910.81;4990599;28;20807;-82
2023/09/17 03:01:17;;;;;;;23.40;21.23;;;;;;;15.28;100.00;100906.44;5014187;28;20477;-80
2023/09/17 03:03:47;;;;;;;25.13;22.83;;;;;;;15.31;100.00;100911.41;5015059;28;20465;-82
2023/09/17 03:06:17;;;;;;;22.73;20.53;;;;;;;15.15;100.00;100902.03;5028273;28;20447;-83
2023/09/17 03:08:48;;;;;;;25.23;22.53;;;;;;;15.13;100.00;100910.41;5024128;28;20442;-80
2023/09/17 03:11:19;;;;;;;22.70;20.40;;;;;;;15.19;100.00;100909.50;5002179;28;20434;-82
2023/09/17 03:13:49;;;;;;;23.03;20.97;;;;;;;15.08;100.00;100913.00;5000889;28;20500;-83
2023/09/17 03:16:19;;;;;;;21.77;18.70;;;;;;;15.23;100.00;100918.88;4993174;28;20516;-81
2023/09/17 03:18:49;;;;;;;21.63;19.53;;;;;;;15.11;100.00;100915.25;5004080;28;20429;-81
2023/09/17 03:21:19;;;;;;;23.27;21.10;;;;;;;14.97;100.00;100919.22;5009586;28;20461;-82
2023/09/17 03:23:49;;;;;;;22.80;20.70;;;;;;;14.91;100.00;100922.06;4992942;28;21509;-83
2023/09/17 03:26:22;;;;;;;24.63;22.20;;;;;;;14.88;100.00;100912.44;4998079;28;20457;-83
2023/09/17 03:28:51;;;;;;;22.77;20.37;;;;;;;15.08;100.00;100906.72;4999582;28;20469;-83
2023/09/17 03:31:20;;;;;;;23.43;21.13;;;;;;;15.17;100.00;100906.16;4998682;28;20489;-83
2023/09/17 03:33:50;;;;;;;22.47;20.37;;;;;;;15.13;100.00;100910.41;4999870;28;20465;-83
2023/09/17 03:36:20;;;;;;;25.57;21.47;;;;;;;14.92;100.00;100913.63;5003083;28;20433;-81
2023/09/17 03:38:51;;;;;;;22.03;19.97;;;;;;;14.92;100.00;100912.81;4994022;28;20463;-83
2023/09/17 03:41:20;;;;;;;22.73;20.37;;;;;;;14.91;100.00;100909.25;5002314;28;20483;-83
2023/09/17 03:43:50;;;;;;;20.40;18.30;;;;;;;14.79;100.00;100916.53;5001251;28;20924;-82
2023/09/17 03:46:20;;;;;;;21.57;19.43;;;;;;;14.82;100.00;100910.63;5006440;28;20431;-81
2023/09/17 03:48:49;;;;;;;23.73;21.43;;;;;;;14.85;100.00;100907.47;5001633;28;20905;-82
2023/09/17 03:51:19;;;;;;;20.43;18.60;;;;;;;14.88;100.00;100907.00;4997891;28;20442;-81
2023/09/17 03:53:50;;;;;;;20.50;18.60;;;;;;;14.97;100.00;100916.50;4993663;28;20728;-81
2023/09/17 03:56:20;;;;;;;20.50;18.60;;;;;;;14.96;100.00;100912.09;4997673;28;20442;-82
2023/09/17 03:58:51;;;;;;;20.90;19.00;;;;;;;15.02;100.00;100919.38;5002576;28;20544;-82
2023/09/17 04:01:21;;;;;;;21.63;19.43;;;;;;;14.85;100.00;100915.63;5006706;28;20431;-82
2023/09/17 04:03:50;;;;;;;19.93;17.90;;;;;;;14.78;100.00;100917.59;4998713;28;20416;-81
2023/09/17 04:06:21;;;;;;;20.10;17.93;;;;;;;14.78;100.00;100918.44;4999479;28;20967;-82
2023/09/17 04:08:51;;;;;;;20.33;18.27;;;;;;;14.74;100.00;100922.69;4994616;28;21000;-82
2023/09/17 04:11:21;;;;;;;22.97;20.57;;;;;;;14.86;100.00;100914.59;5004089;28;20539;-81
2023/09/17 04:13:50;;;;;;;21.90;19.90;;;;;;;14.69;100.00;100918.97;5008433;28;20962;-83
2023/09/17 04:16:23;;;;;;;20.17;18.27;;;;;;;14.50;100.00;100920.88;4994338;28;20446;-83
2023/09/17 04:18:53;;;;;;;21.10;19.00;;;;;;;14.33;100.00;100930.66;5006464;28;20444;-83
2023/09/17 04:21:22;;;;;;;20.30;18.50;;;;;;;14.43;100.00;100931.00;4996268;28;20446;-83
2023/09/17 04:23:53;;;;;;;21.27;19.37;;;;;;;14.31;100.00;100932.78;4995426;28;20626;-83
2023/09/17 04:26:24;;;;;;;23.27;20.03;;;;;;;14.34;100.00;100927.72;4987059;28;21125;-82
2023/09/17 04:28:53;;;;;;;20.20;18.30;;;;;;;14.38;100.00;100932.75;4998078;28;20415;-83
2023/09/17 04:31:23;;;;;;;22.53;19.37;;;;;;;14.57;100.00;100932.50;5002502;28;20459;-81
2023/09/17 04:33:53;;;;;;;19.67;17.77;;;;;;;14.70;100.00;100928.81;5000029;28;20805;-82
2023/09/17 04:36:22;;;;;;;20.97;19.03;;;;;;;14.63;100.00;100933.50;5006330;28;20403;-82
2023/09/17 04:38:53;;;;;;;25.20;21.23;;;;;;;14.63;100.00;100931.59;5002323;28;20508;-83
2023/09/17 04:41:22;;;;;;;21.77;19.67;;;;;;;14.70;100.00;100943.28;5008636;28;20469;-83
2023/09/17 04:43:52;;;;;;;21.87;19.53;;;;;;;14.63;100.00;100941.66;4997199;28;20453;-83
2023/09/17 04:46:23;;;;;;;21.40;19.30;;;;;;;14.52;100.00;100939.72;5004790;28;20780;-82
2023/09/17 04:48:53;;;;;;;21.90;18.87;;;;;;;14.59;100.00;100945.91;5012322;28;20434;-81
2023/09/17 04:51:23;;;;;;;21.73;19.50;;;;;;;14.61;100.00;100949.25;5007596;28;20452;-82
2023/09/17 04:53:54;;;;;;;22.30;18.33;;;;;;;14.62;100.00;100949.00;5007238;28;20439;-82
2023/09/17 04:56:24;;;;;;;21.93;19.73;;;;;;;14.63;100.00;100952.56;4994449;28;20575;-82
2023/09/17 04:58:54;;;;;;;22.07;19.77;;;;;;;14.87;100.00;100954.38;5001521;28;20449;-79
2023/09/17 05:01:24;;;;;;;20.40;18.47;;;;;;;14.99;100.00;100952.53;4992542;28;20494;-82
2023/09/17 05:03:55;;;;;;;19.73;18.13;;;;;;;14.98;100.00;100961.78;5004356;28;20911;-81
2023/09/17 05:06:25;;;;;;;24.97;22.47;;;;;;;14.91;100.00;100952.03;5024193;28;20405;-83
2023/09/17 05:08:56;;;;;;;24.57;20.53;;;;;;;14.91;100.00;100950.13;5022196;28;20503;-81
2023/09/17 05:11:26;;;;;;;25.37;22.67;;;;;;;14.96;100.00;100958.44;5034050;28;20465;-83
2023/09/17 05:13:56;;;;;;;22.77;20.37;;;;;;;15.11;100.00;100966.22;4999242;28;20449;-83
2023/09/17 05:16:26;;;;;;;20.83;18.73;;;;;;;15.19;100.00;100961.28;5004676;28;20468;-83
2023/09/17 05:18:55;;;;;;;19.20;17.33;;;;;;;15.23;100.00;100957.03;4998287;28;20442;-82
2023/09/17 05:21:25;;;;;;;20.27;18.27;;;;;;;15.24;100.00;100968.78;5006326;28;20472;-83
2023/09/17 05:23:56;;;;;;;22.37;18.30;;;;;;;15.32;100.00;100964.88;5007423;28;20424;-81
2023/09/17 05:26:25;;;;;;;22.07;20.03;;;;;;;15.51;100.00;100971.97;5008485;28;20896;-79
2023/09/17 05:28:56;;;;;;;19.57;17.87;;;;;;;15.58;100.00;100970.81;5014493;28;20437;-81
2023/09/17 05:31:26;;;;;;;19.33;17.30;;;;;;;15.66;100.00;100972.38;5015107;28;20871;-81
2023/09/17 05:33:57;;;;;;;20.17;18.00;;;;;;;15.73;100.00;100966.81;5012303;28;20440;-83
2023/09/17 05:36:27;;;;;;;18.27;16.53;;;;;;;15.81;100.00;100967.31;5004576;28;20462;-82
2023/09/17 05:38:59;;;;;;;20.10;17.87;;;;;;;15.91;100.00;100970.28;5018389;28;20420;-81
2023/09/17 05:41:32;;;;;;;21.13;18.67;;;;;;;16.03;100.00;100971.13;5012079;28;21016;-81
2023/09/17 05:44:03;;;;;;;19.23;17.40;;;;;;;16.14;100.00;100969.47;5003554;28;20488;-82
2023/09/17 05:46:33;;;;;;;19.53;17.77;;;;;;;16.23;100.00;100981.69;5016548;28;20438;-80
2023/09/17 05:49:02;;;;;;;17.63;15.93;;;;;;;16.44;100.00;100983.00;5027368;28;20421;-80
2023/09/17 05:51:31;;;;;;;18.30;16.40;;;;;;;16.47;100.00;100982.53;5016664;28;20493;-81
2023/09/17 05:54:03;;;;;;;17.20;15.57;;;;;;;16.59;100.00;100988.00;5024828;28;20459;-79
2023/09/17 05:56:32;;;;;;;19.17;17.50;;;;;;;16.65;100.00;100989.81;5011228;28;20425;-81
2023/09/17 05:59:02;;;;;;;18.27;16.57;;;;;;;16.76;100.00;100995.22;5020547;28;20412;-80
2023/09/17 06:01:33;;;;;;;19.17;17.47;;;;;;;16.99;99.42;100996.25;5029273;28;20476;-80
2023/09/17 06:04:02;;;;;;;18.47;16.67;;;;;;;17.12;98.72;100995.97;5014598;28;20409;-79
2023/09/17 06:06:32;;;;;;;18.77;15.73;;;;;;;17.35;97.85;100995.88;5021326;28;20442;-79
2023/09/17 06:09:05;;;;;;;19.00;17.07;;;;;;;17.52;95.59;101007.72;5038455;28;20416;-80
2023/09/17 06:11:34;;;;;;;19.70;17.70;;;;;;;17.60;95.27;101009.25;5014567;28;20460;-83
2023/09/17 06:14:03;;;;;;;19.20;17.00;;;;;;;17.63;95.63;101020.53;5003787;28;20413;-82
2023/09/17 06:16:33;;;;;;;18.20;16.43;;;;;;;17.74;95.00;101021.56;5016804;28;20430;-82
2023/09/17 06:19:22;;;;;;;18.53;16.93;;;;;;;17.93;94.12;101009.28;5022233;28;20521;-81
2023/09/17 06:21:53;;;;;;;19.90;17.20;;;;;;;18.03;93.18;101009.47;5015752;28;20481;-81
2023/09/17 06:24:24;;;;;;;19.87;17.30;;;;;;;18.24;91.57;101007.91;5018835;28;20485;-80
2023/09/17 06:26:55;;;;;;;18.63;17.03;;;;;;;18.22;91.50;101012.78;5022044;28;20444;-80
2023/09/17 06:29:24;;;;;;;17.00;15.40;;;;;;;18.19;91.50;101013.28;5018304;28;20429;-79
2023/09/17 06:31:54;;;;;;;18.33;16.83;;;;;;;18.13;92.21;101020.59;5013907;28;20493;-78
2023/09/17 06:34:24;;;;;;;21.93;17.00;;;;;;;18.23;92.22;101017.19;5026246;28;20407;-80
2023/09/17 06:36:54;;;;;;;19.90;17.17;;;;;;;18.35;91.92;101020.66;5010173;28;20497;-80
2023/09/17 06:39:25;;;;;;;19.23;17.33;;;;;;;18.52;91.65;101026.13;5015602;28;20416;-81
2023/09/17 06:41:55;;;;;;;18.70;16.77;;;;;;;18.78;90.23;101022.72;5010789;28;20527;-81
2023/09/17 06:44:24;;;;;;;17.67;15.97;;;;;;;19.02;88.73;101023.31;5006707;28;20482;-82
2023/09/17 06:46:54;;;;;;;21.23;18.90;;;;;;;19.11;88.53;101024.53;5004862;28;21162;-82
2023/09/17 06:49:24;;;;;;;20.77;18.97;;;;;;;19.19;88.04;101028.72;5009078;28;20976;-81
2023/09/17 06:51:54;;;;;;;18.33;16.83;;;;;;;19.29;87.98;101026.94;5025657;28;20427;-81
2023/09/17 06:54:25;;;;;;;18.73;17.03;;;;;;;19.31;88.35;101027.50;5012519;28;20517;-81
2023/09/17 06:56:54;;;;;;;17.97;16.37;;;;;;;19.54;86.72;101029.16;5016337;28;20464;-81
2023/09/17 06:59:23;;;;;;;21.60;19.30;;;;;;;19.50;86.69;101031.59;5024625;28;20443;-81
2023/09/17 07:01:53;;;;;;;21.67;19.20;;;;;;;19.48;87.41;101036.50;5017967;28;20572;-81
2023/09/17 07:04:24;;;;;;;20.40;18.43;;;;;;;19.49;87.30;101032.69;5034620;28;20421;-81
2023/09/17 07:06:53;;;;;;;19.20;17.40;;;;;;;19.66;86.88;101034.47;5016109;28;20450;-81
2023/09/17 07:09:24;;;;;;;20.00;18.20;;;;;;;19.87;86.22;101039.09;5028081;28;20411;-81
2023/09/17 07:11:53;;;;;;;19.63;17.73;;;;;;;19.92;86.11;101041.91;5006718;28;20530;-81
2023/09/17 07:14:23;;;;;;;21.10;19.13;;;;;;;20.05;85.24;101043.38;5019063;28;20444;-82
2023/09/17 07:16:53;;;;;;;19.90;16.77;;;;;;;20.16;84.80;101040.47;5012701;28;20500;-81
2023/09/17 07:19:22;;;;;;;21.53;19.53;;;;;;;20.41;83.75;101041.78;5016348;28;20447;-81
2023/09/17 07:21:52;;;;;;;20.93;18.73;;;;;;;20.58;82.06;101053.44;5014043;28;20470;-81
2023/09/17 07:24:22;;;;;;;18.53;16.80;;;;;;;20.71;81.48;101048.34;5025999;28;20444;-80
2023/09/17 07:26:53;;;;;;;21.37;19.37;;;;;;;20.94;80.57;101049.84;5033153;28;20471;-80
2023/09/17 07:29:23;;;;;;;19.90;17.97;;;;;;;21.17;78.46;101049.44;5009564;28;20447;-81
2023/09/17 07:31:53;;;;;;;18.30;16.80;;;;;;;21.17;78.28;101046.69;5001842;28;20453;-82
2023/09/17 07:34:23;;;;;;;20.50;17.47;;;;;;;21.28;78.23;101043.97;4999523;28;20446;-83
2023/09/17 07:36:53;;;;;;;17.57;15.93;;;;;;;21.47;77.53;101053.41;4994321;28;20496;-82
2023/09/17 07:39:22;;;;;;;19.60;17.73;;;;;;;21.55;76.74;101055.63;5008985;28;20433;-82
2023/09/17 07:41:53;;;;;;;18.97;17.47;;;;;;;21.65;76.28;101061.97;5000488;28;20445;-83
2023/09/17 07:44:23;;;;;;;19.37;17.43;;;;;;;21.78;75.61;101057.91;4999340;28;20433;-81
2023/09/17 07:46:52;;;;;;;18.90;17.30;;;;;;;21.80;74.99;101058.44;5002045;28;20577;-83
2023/09/17 07:49:26;;;;;;;18.37;16.70;;;;;;;21.88;74.55;101063.41;4998381;28;20853;-81
2023/09/17 07:51:57;;;;;;;16.70;15.20;;;;;;;21.91;73.05;101068.38;5009475;28;20496;-82
2023/09/17 07:54:26;;;;;;;16.73;15.07;;;;;;;22.02;73.39;101063.75;5001194;28;20461;-83
2023/09/17 07:56:57;;;;;;;16.20;14.60;;;;;;;22.06;73.23;101065.69;5002975;28;20465;-83
2023/09/17 07:59:26;;;;;;;16.87;15.27;;;;;;;22.13;72.54;101070.91;5003078;28;20448;-82
2023/09/17 08:01:56;;;;;;;15.50;14.20;;;;;;;21.98;73.29;101060.69;5009966;28;20469;-82
2023/09/17 08:04:26;;;;;;;16.60;15.10;;;;;;;22.14;72.98;101060.72;5003614;28;20450;-81
2023/09/17 08:06:56;;;;;;;17.13;15.40;;;;;;;22.18;72.54;101056.28;5001838;28;20455;-83
2023/09/17 08:09:26;;;;;;;15.33;14.03;;;;;;;22.08;72.83;101063.47;5001074;28;20411;-83
2023/09/17 08:11:57;;;;;;;15.63;14.23;;;;;;;22.03;73.70;101070.88;4999672;28;20820;-83
2023/09/17 08:14:26;;;;;;;17.67;16.17;;;;;;;22.23;72.95;101064.56;5007460;28;20461;-83
2023/09/17 08:16:56;;;;;;;15.67;14.37;;;;;;;22.44;72.21;101069.81;5002564;28;20458;-83
2023/09/17 08:19:25;;;;;;;17.80;16.30;;;;;;;22.66;70.71;101074.19;5000684;28;20437;-83
2023/09/17 08:21:54;;;;;;;15.20;13.90;;;;;;;22.81;70.51;101065.94;5003174;28;20517;-82
2023/09/17 08:24:25;;;;;;;16.40;14.73;;;;;;;22.76;70.26;101052.97;5003342;28;20552;-83
2023/09/17 08:26:58;;;;;;;15.60;14.23;;;;;;;22.74;70.73;101062.66;5003587;28;20557;-83
2023/09/17 08:29:28;;;;;;;15.40;14.10;;;;;;;22.72;70.30;101057.41;5006583;28;20441;-83
2023/09/17 08:31:58;;;;;;;14.97;13.67;;;;;;;22.85;70.05;101065.09;5003586;28;21010;-83
2023/09/17 08:34:27;;;;;;;14.67;13.17;;;;;;;22.94;69.23;101060.69;5002895;28;20943;-83
2023/09/17 08:36:57;;;;;;;15.93;14.33;;;;;;;22.76;69.70;101058.50;5009312;28;20453;-83
2023/09/17 08:39:26;;;;;;;15.43;14.03;;;;;;;22.85;69.67;101061.53;4996556;28;20441;-83
2023/09/17 08:41:59;;;;;;;15.07;13.57;;;;;;;22.78;69.89;101061.81;5012898;28;20434;-82
2023/09/17 08:44:31;;;;;;;15.23;13.60;;;;;;;22.88;69.80;101059.03;5003579;28;20552;-82
2023/09/17 08:47:01;;;;;;;16.13;14.63;;;;;;;23.02;68.96;101064.78;5010892;28;20504;-83
2023/09/17 08:49:30;;;;;;;15.60;14.40;;;;;;;22.98;68.35;101060.09;5015358;28;20512;-82
2023/09/17 08:52:05;;;;;;;13.97;12.57;;;;;;;23.07;68.97;101055.66;5007840;28;20452;-82
2023/09/17 08:54:39;;;;;;;15.67;14.00;;;;;;;23.13;68.34;101054.53;5011491;28;20458;-83
2023/09/17 08:57:15;;;;;;;14.90;13.40;;;;;;;23.21;68.25;101051.19;5027240;28;20552;-82
2023/09/17 08:59:47;;;;;;;14.73;13.43;;;;;;;23.40;68.39;101057.72;5011547;28;20529;-82
2023/09/17 09:02:22;;;;;;;14.60;13.30;;;;;;;23.71;66.25;101048.22;5013575;28;20413;-83
2023/09/17 09:04:52;;;;;;;16.93;15.53;;;;;;;24.01;65.44;101049.13;5026022;28;20418;-82
2023/09/17 09:07:23;;;;;;;15.83;14.50;;;;;;;23.97;65.25;101056.31;5007852;28;20446;-83
2023/09/17 09:09:59;;;;;;;15.63;13.43;;;;;;;23.76;65.67;101056.47;5014019;28;20449;-82
2023/09/17 09:12:30;;;;;;;14.27;12.87;;;;;;;23.99;65.31;101049.41;5016017;28;20406;-82
2023/09/17 09:15:06;;;;;;;15.10;13.70;;;;;;;23.89;64.63;101048.63;5025387;28;20441;-82
2023/09/17 09:17:35;;;;;;;14.57;13.03;;;;;;;24.16;63.53;101054.50;5015849;28;20507;-83
2023/09/17 09:20:10;;;;;;;14.77;12.83;;;;;;;24.32;63.00;101058.00;5008432;28;20807;-83
2023/09/17 09:22:43;;;;;;;14.10;12.70;;;;;;;24.48;62.32;101054.81;5018987;28;20432;-83
2023/09/17 09:25:15;;;;;;;15.20;13.97;;;;;;;24.51;62.37;101057.00;5009378;28;20456;-83
2023/09/17 09:27:46;;;;;;;14.17;11.80;;;;;;;24.44;61.54;101056.53;5013265;28;20467;-84
2023/09/17 09:30:18;;;;;;;15.67;12.63;;;;;;;24.43;62.19;101054.88;5006472;28;20435;-83
2023/09/17 09:32:47;;;;;;;14.63;13.23;;;;;;;24.56;61.60;101054.19;5003128;28;20441;-83
2023/09/17 09:35:17;;;;;;;14.70;13.30;;;;;;;24.66;61.99;101047.72;5008179;28;20422;-83
2023/09/17 09:37:47;;;;;;;13.10;12.00;;;;;;;24.63;60.31;101048.31;5017797;28;20450;-83
2023/09/17 09:40:17;;;;;;;15.00;13.70;;;;;;;24.77;60.37;101048.44;5009321;28;20415;-82
2023/09/17 09:42:49;;;;;;;12.30;11.30;;;;;;;24.95;59.64;101040.25;5004711;28;20541;-83
2023/09/17 09:45:18;;;;;;;13.60;12.40;;;;;;;25.06;58.50;101049.25;5017557;28;20449;-83
2023/09/17 09:47:51;;;;;;;12.60;11.33;;;;;;;25.14;58.66;101051.38;5029164;28;20429;-82
2023/09/17 09:50:25;;;;;;;12.63;11.50;;;;;;;25.16;58.91;101051.91;5012021;28;20438;-83
2023/09/17 09:52:54;;;;;;;12.17;10.93;;;;;;;25.53;58.00;101053.91;5023338;28;20438;-83
2023/09/17 09:55:27;;;;;;;13.40;12.20;;;;;;;25.57;57.16;101051.41;5014971;28;20441;-83
2023/09/17 09:57:59;;;;;;;10.67;9.77;;;;;;;25.40;57.11;101057.44;5014955;28;20460;-83
2023/09/17 10:00:29;;;;;;;14.27;11.03;;;;;;;25.37;57.65;101047.75;5011749;28;20426;-83
2023/09/17 10:03:01;;;;;;;11.80;10.90;;;;;;;25.64;57.11;101049.09;5013989;28;20900;-83
2023/09/17 10:05:37;;;;;;;13.70;12.30;;;;;;;25.94;56.12;101043.09;5014887;28;20445;-83
2023/09/17 10:08:11;;;;;;;12.37;10.80;;;;;;;26.18;52.95;101035.50;5017780;28;20453;-83
2023/09/17 10:10:41;;;;;;;11.23;10.23;;;;;;;26.06;53.40;101040.69;5013795;28;20421;-83
2023/09/17 10:13:14;;;;;;;10.80;9.80;;;;;;;26.29;52.79;101048.09;5011978;28;20426;-82
2023/09/17 10:15:50;;;;;;;11.03;10.03;;;;;;;26.33;53.01;101046.38;5014272;28;20447;-83
2023/09/17 10:18:26;;;;;;;11.60;10.63;;;;;;;26.64;52.07;101048.59;5015449;28;20453;-83
2023/09/17 10:20:56;;;;;;;11.60;10.60;;;;;;;26.46;51.68;101044.75;5014303;28;20521;-83
2023/09/17 10:23:27;;;;;;;11.80;10.80;;;;;;;26.34;51.88;101045.22;5000105;28;20497;-83
2023/09/17 10:25:59;;;;;;;10.77;9.77;;;;;;;26.58;51.35;101038.69;5007699;28;20443;-84
2023/09/17 10:28:32;;;;;;;9.60;8.80;;;;;;;26.58;50.71;101038.69;5004120;28;20491;-84
2023/09/17 10:31:03;;;;;;;11.07;10.07;;;;;;;26.43;50.92;101041.78;5006616;28;20508;-83
2023/09/17 10:37:48;;;;;;;9.23;8.40;;;;;;;26.54;50.64;101032.94;5003214;28;20477;-83
2023/09/17 10:40:18;;;;;;;10.13;9.13;;;;;;;26.72;50.04;101028.47;5006903;28;20437;-84
2023/09/17 10:42:50;;;;;;;10.90;10.00;;;;;;;26.70;49.38;101036.28;5002345;28;20429;-84
2023/09/17 10:45:24;;;;;;;9.73;8.73;;;;;;;26.63;49.16;101038.59;5020377;28;20489;-84
2023/09/17 10:47:57;;;;;;;10.70;9.80;;;;;;;26.61;49.30;101040.88;4998782;28;20476;-83
2023/09/17 10:50:29;;;;;;;10.73;9.93;;;;;;;26.72;49.37;101045.13;5008454;28;20494;-83
2023/09/17 10:52:59;;;;;;;11.17;10.13;;;;;;;26.93;49.09;101040.84;5002972;28;20485;-83
2023/09/17 10:55:34;;;;;;;10.73;9.73;;;;;;;27.16;48.39;101045.38;4999213;28;20462;-84
2023/09/17 10:58:12;;;;;;;8.77;7.80;;;;;;;27.30;47.81;101044.56;5004870;28;20472;-83
2023/09/17 11:00:45;;;;;;;11.30;10.20;;;;;;;27.52;47.45;101052.97;5015309;28;20444;-84
2023/09/17 11:03:25;;;;;;;10.27;9.47;;;;;;;27.34;47.90;101051.13;5020819;28;20452;-84
2023/09/17 11:05:56;;;;;;;13.07;10.30;;;;;;;27.27;47.22;101050.72;4998352;28;20546;-83
2023/09/17 11:08:27;;;;;;;10.93;10.07;;;;;;;27.15;47.57;101049.31;5002279;28;20521;-84
2023/09/17 11:10:56;;;;;;;8.77;8.07;;;;;;;27.06;47.74;101042.00;5007476;28;20465;-83
2023/09/17 11:13:26;;;;;;;8.97;8.07;;;;;;;27.19;46.95;101041.97;5002934;28;20510;-84
2023/09/17 11:15:58;;;;;;;9.43;8.70;;;;;;;27.22;47.14;101040.53;4997529;28;20434;-83
2023/09/17 11:18:31;;;;;;;10.30;9.60;;;;;;;27.47;46.58;101040.00;5003500;28;21007;-83
2023/09/17 11:21:08;;;;;;;9.70;8.93;;;;;;;27.69;46.12;101041.22;5006083;28;20516;-84
2023/09/17 11:23:39;;;;;;;10.50;9.40;;;;;;;27.78;44.69;101037.38;5002371;28;20445;-84
2023/09/17 11:26:09;;;;;;;9.97;8.93;;;;;;;27.47;45.75;101036.38;5002051;28;20473;-84
2023/09/17 11:28:40;;;;;;;8.57;7.77;;;;;;;27.62;45.68;101044.41;5002253;28;20454;-83
2023/09/17 11:31:14;;;;;;;9.40;8.60;;;;;;;27.62;45.52;101042.47;5012462;28;20421;-83
2023/09/17 11:33:45;;;;;;;9.10;8.30;;;;;;;27.81;44.43;101035.91;5015010;28;20445;-83
2023/09/17 11:36:15;;;;;;;7.80;7.20;;;;;;;27.72;43.26;101038.63;5016906;28;20445;-82
2023/09/17 11:38:47;;;;;;;9.30;8.50;;;;;;;27.62;44.23;101036.06;5012365;28;20502;-82
2023/09/17 11:41:35;;;;;;;6.90;6.37;;;;;;;27.62;44.45;101036.06;5031308;28;20526;-83
2023/09/17 11:44:08;;;;;;;9.07;8.27;;;;;;;27.81;44.83;101036.75;5012468;28;20456;-83